Time;durP1;ratioP1;P1;durP2;ratioP2;P2;SDS_P1;SDS_P2;PMS_P1;PMS_P2;Temp;Humidity;BMP_temperature;BMP_pressure;BME280_temperature;BME280_humidity;BME280_pressure;Samples;Min_cycle;Max_cycle;Signal;HPM_P1;HPM_P2
2022/06/30 00:00:07;;;;;;;2.88;1.75;;;;;;;;;;5053655;28;20462;-71
2022/06/30 00:02:32;;;;;;;4.15;2.20;;;;;;;;;;5053427;28;20017;-71
2022/06/30 00:04:58;;;;;;;4.03;1.80;;;;;;;;;;5053679;28;20021;-72
2022/06/30 00:07:25;;;;;;;3.45;1.65;;;;;;;;;;5053567;28;20263;-71
2022/06/30 00:09:50;;;;;;;2.72;1.58;;;;;;;;;;5053336;28;20025;-72
2022/06/30 00:12:16;;;;;;;3.90;1.60;;;;;;;;;;5052925;28;20386;-71
2022/06/30 00:14:42;;;;;;;2.25;1.92;;;;;;;;;;5053457;28;20108;-71
2022/06/30 00:17:08;;;;;;;3.20;1.67;;;;;;;;;;5053374;28;20466;-71
2022/06/30 00:19:34;;;;;;;4.68;2.08;;;;;;;;;;5053548;28;20044;-71
2022/06/30 00:22:00;;;;;;;7.60;2.20;;;;;;;;;;5053158;28;20041;-72
2022/06/30 00:24:25;;;;;;;5.18;2.35;;;;;;;;;;5035288;28;20017;-71
2022/06/30 00:26:51;;;;;;;6.90;2.22;;;;;;;;;;5035396;28;20386;-73
2022/06/30 00:29:18;;;;;;;4.85;2.25;;;;;;;;;;5053226;28;20017;-71
2022/06/30 00:31:44;;;;;;;3.03;1.98;;;;;;;;;;5053251;28;20020;-71
2022/06/30 00:34:09;;;;;;;2.53;2.22;;;;;;;;;;5054641;28;20044;-71
2022/06/30 00:36:34;;;;;;;2.93;2.00;;;;;;;;;;5057078;28;20024;-70
2022/06/30 00:39:00;;;;;;;2.80;2.17;;;;;;;;;;5039067;28;20256;-72
2022/06/30 00:41:26;;;;;;;4.55;2.22;;;;;;;;;;5057262;28;20752;-71
2022/06/30 00:43:52;;;;;;;4.78;2.53;;;;;;;;;;5039094;28;20104;-71
2022/06/30 00:46:19;;;;;;;2.92;2.10;;;;;;;;;;5038995;28;20020;-70
2022/06/30 00:48:44;;;;;;;3.85;2.50;;;;;;;;;;5056892;28;20044;-70
2022/06/30 00:51:11;;;;;;;4.57;2.80;;;;;;;;;;5056802;28;20028;-71
2022/06/30 00:53:40;;;;;;;6.15;2.40;;;;;;;;;;5056876;28;20425;-71
2022/06/30 00:56:08;;;;;;;4.20;2.35;;;;;;;;;;5038755;28;20017;-71
2022/06/30 00:58:40;;;;;;;4.60;2.38;;;;;;;;;;5038775;28;20021;-71
2022/06/30 01:01:10;;;;;;;4.50;2.33;;;;;;;;;;5022547;28;20024;-71
2022/06/30 01:03:36;;;;;;;5.25;2.75;;;;;;;;;;5056742;28;20100;-72
2022/06/30 01:06:06;;;;;;;4.47;2.17;;;;;;;;;;5056747;28;20017;-71
2022/06/30 01:08:32;;;;;;;4.22;2.38;;;;;;;;;;5056958;28;20016;-71
2022/06/30 01:13:45;;;;;;;3.22;2.38;;;;;;;;;;5041637;28;20505;-71
2022/06/30 01:16:11;;;;;;;4.13;2.65;;;;;;;;;;5038510;28;20541;-71
2022/06/30 01:18:36;;;;;;;4.18;2.20;;;;;;;;;;5021969;28;20021;-71
2022/06/30 01:21:02;;;;;;;5.88;2.67;;;;;;;;;;5056251;28;20035;-71
2022/06/30 01:23:29;;;;;;;8.40;3.25;;;;;;;;;;5037863;28;20025;-72
2022/06/30 01:25:55;;;;;;;5.60;3.50;;;;;;;;;;5056295;28;20424;-71
2022/06/30 01:28:21;;;;;;;5.03;2.60;;;;;;;;;;5055977;28;20366;-71
2022/06/30 01:30:47;;;;;;;3.83;3.20;;;;;;;;;;5038213;28;20028;-71
2022/06/30 01:33:13;;;;;;;6.22;3.22;;;;;;;;;;5055807;28;20045;-71
2022/06/30 01:35:38;;;;;;;4.00;3.03;;;;;;;;;;5037961;28;20032;-72
2022/06/30 01:38:04;;;;;;;4.87;3.43;;;;;;;;;;5055979;28;20447;-72
2022/06/30 01:40:31;;;;;;;13.00;5.65;;;;;;;;;;5038361;28;20358;-72
2022/06/30 01:42:57;;;;;;;6.38;3.50;;;;;;;;;;5055997;28;20112;-76
2022/06/30 01:45:23;;;;;;;4.07;3.13;;;;;;;;;;5037877;28;20024;-74
2022/06/30 01:47:50;;;;;;;4.65;3.10;;;;;;;;;;5055967;28;20028;-75
2022/06/30 01:50:19;;;;;;;5.93;3.10;;;;;;;;;;5055694;28;20533;-75
2022/06/30 01:52:44;;;;;;;4.70;3.58;;;;;;;;;;5037991;28;20098;-74
2022/06/30 01:55:10;;;;;;;6.15;3.75;;;;;;;;;;5055549;28;20457;-75
2022/06/30 01:57:44;;;;;;;4.00;3.10;;;;;;;;;;5021130;28;20029;-73
2022/06/30 02:00:11;;;;;;;3.85;3.00;;;;;;;;;;5055416;28;20017;-74
2022/06/30 02:02:37;;;;;;;5.70;4.10;;;;;;;;;;5037890;28;20482;-74
2022/06/30 02:05:04;;;;;;;4.45;3.25;;;;;;;;;;5037800;28;20028;-75
2022/06/30 02:07:30;;;;;;;3.92;2.90;;;;;;;;;;5037668;28;20391;-74
2022/06/30 02:09:56;;;;;;;2.63;2.40;;;;;;;;;;5055789;28;20481;-73
2022/06/30 02:15:09;;;;;;;4.78;2.85;;;;;;;;;;5055227;28;20116;-72
2022/06/30 02:17:43;;;;;;;4.88;2.58;;;;;;;;;;5037556;28;20032;-73
2022/06/30 02:20:11;;;;;;;4.60;3.05;;;;;;;;;;5055203;28;20021;-73
2022/06/30 02:22:45;;;;;;;3.10;2.78;;;;;;;;;;5037441;28;20052;-73
2022/06/30 02:25:10;;;;;;;4.20;2.83;;;;;;;;;;5037067;28;20025;-74
2022/06/30 02:27:37;;;;;;;5.60;3.10;;;;;;;;;;5037057;28;20028;-74
2022/06/30 02:30:04;;;;;;;4.07;3.13;;;;;;;;;;5037113;28;20282;-74
2022/06/30 02:32:30;;;;;;;4.50;3.67;;;;;;;;;;5055119;28;20100;-73
2022/06/30 02:34:56;;;;;;;4.00;3.13;;;;;;;;;;5054674;28;20463;-74
2022/06/30 02:37:23;;;;;;;5.55;3.47;;;;;;;;;;5054767;28;20370;-73
2022/06/30 02:39:49;;;;;;;4.28;3.28;;;;;;;;;;5053443;28;20385;-73
2022/06/30 02:42:15;;;;;;;4.72;3.72;;;;;;;;;;5036783;28;20013;-74
2022/06/30 02:44:42;;;;;;;4.05;3.30;;;;;;;;;;5054962;28;20079;-74
2022/06/30 02:47:08;;;;;;;6.00;3.00;;;;;;;;;;5054704;28;20094;-73
2022/06/30 02:49:37;;;;;;;3.33;2.72;;;;;;;;;;5054510;28;20103;-73
2022/06/30 02:52:04;;;;;;;4.53;3.05;;;;;;;;;;5054739;28;20028;-74
2022/06/30 02:54:29;;;;;;;6.07;3.47;;;;;;;;;;5036520;28;20027;-73
2022/06/30 02:56:55;;;;;;;4.40;3.50;;;;;;;;;;5054111;28;20017;-73
2022/06/30 02:59:22;;;;;;;4.18;2.95;;;;;;;;;;5054804;28;20266;-73
2022/06/30 03:01:49;;;;;;;3.42;2.67;;;;;;;;;;5054637;28;20375;-74
2022/06/30 03:04:14;;;;;;;4.57;2.92;;;;;;;;;;5054346;28;20024;-72
2022/06/30 03:06:40;;;;;;;3.83;2.92;;;;;;;;;;5035726;28;20037;-72
2022/06/30 03:09:06;;;;;;;5.07;3.88;;;;;;;;;;5054438;28;20482;-74
2022/06/30 03:11:41;;;;;;;4.90;3.67;;;;;;;;;;5054004;28;20532;-75
2022/06/30 03:14:06;;;;;;;4.90;2.90;;;;;;;;;;5054046;28;20466;-74
2022/06/30 03:16:32;;;;;;;3.88;3.08;;;;;;;;;;5053279;28;20086;-74
2022/06/30 03:18:59;;;;;;;5.93;3.45;;;;;;;;;;5036251;28;20466;-73
2022/06/30 03:21:24;;;;;;;4.15;3.03;;;;;;;;;;5053954;28;20546;-74
2022/06/30 03:23:50;;;;;;;5.22;2.90;;;;;;;;;;5054141;28;20092;-73
2022/06/30 03:26:17;;;;;;;4.68;3.60;;;;;;;;;;5036110;28;20032;-73
2022/06/30 03:28:42;;;;;;;4.13;3.17;;;;;;;;;;5052613;28;20020;-73
2022/06/30 03:31:08;;;;;;;5.78;3.85;;;;;;;;;;5053790;28;20422;-74
2022/06/30 03:33:34;;;;;;;4.28;3.20;;;;;;;;;;5053695;28;20044;-73
2022/06/30 03:36:01;;;;;;;5.22;3.63;;;;;;;;;;5053619;28;20457;-73
2022/06/30 03:38:27;;;;;;;2.97;2.67;;;;;;;;;;5053857;28;20013;-73
2022/06/30 03:40:52;;;;;;;5.90;3.20;;;;;;;;;;5053988;28;20021;-73
2022/06/30 03:43:19;;;;;;;3.80;3.10;;;;;;;;;;5035825;28;20035;-73
2022/06/30 03:45:45;;;;;;;3.60;3.28;;;;;;;;;;5053744;28;20075;-73
2022/06/30 03:48:11;;;;;;;4.55;3.72;;;;;;;;;;5053678;28;20039;-73
2022/06/30 03:50:37;;;;;;;4.80;3.53;;;;;;;;;;5052218;28;20116;-73
2022/06/30 03:53:04;;;;;;;4.15;3.13;;;;;;;;;;5053998;28;20017;-74
2022/06/30 03:55:33;;;;;;;5.00;3.35;;;;;;;;;;5035387;28;20029;-73
2022/06/30 03:58:00;;;;;;;3.22;2.92;;;;;;;;;;5053455;28;20035;-74
2022/06/30 04:00:25;;;;;;;5.43;3.63;;;;;;;;;;5053664;28;20028;-74
2022/06/30 04:02:51;;;;;;;5.15;4.18;;;;;;;;;;5053470;28;20021;-74
2022/06/30 04:05:18;;;;;;;4.75;3.80;;;;;;;;;;5053367;28;20021;-73
2022/06/30 04:07:52;;;;;;;4.70;3.78;;;;;;;;;;5053681;28;20029;-73
2022/06/30 04:10:19;;;;;;;5.10;3.72;;;;;;;;;;5039898;28;20021;-73
2022/06/30 04:12:45;;;;;;;5.55;4.10;;;;;;;;;;5057614;28;20059;-73
2022/06/30 04:15:11;;;;;;;4.97;3.80;;;;;;;;;;5057543;28;20027;-73
2022/06/30 04:17:37;;;;;;;5.95;3.70;;;;;;;;;;5057276;28;20025;-74
2022/06/30 04:20:04;;;;;;;5.30;4.22;;;;;;;;;;5039524;28;20019;-74
2022/06/30 04:22:31;;;;;;;4.40;4.00;;;;;;;;;;5022880;28;20025;-74
2022/06/30 04:24:58;;;;;;;6.15;3.95;;;;;;;;;;5056022;28;20025;-73
2022/06/30 04:27:23;;;;;;;6.90;3.92;;;;;;;;;;5039333;28;20017;-72
2022/06/30 04:29:50;;;;;;;6.60;4.25;;;;;;;;;;5039059;28;20017;-72
2022/06/30 04:34:59;;;;;;;6.63;4.70;;;;;;;;;;5041725;28;20060;-73
2022/06/30 04:37:25;;;;;;;4.93;4.20;;;;;;;;;;5056962;28;20017;-73
2022/06/30 04:41:23;;;;;;;7.32;3.58;;;;;;;;;;5057247;28;20264;-73
2022/06/30 04:42:36;;;;;;;3.50;3.05;;;;;;;;;;5056149;28;20068;-72
2022/06/30 04:45:03;;;;;;;6.67;3.37;;;;;;;;;;5056777;28;20114;-72
2022/06/30 04:47:29;;;;;;;4.85;3.92;;;;;;;;;;5038821;28;20283;-71
2022/06/30 04:49:58;;;;;;;3.67;3.03;;;;;;;;;;5057049;28;20155;-72
2022/06/30 04:52:24;;;;;;;8.30;4.15;;;;;;;;;;5056728;28;20033;-72
2022/06/30 04:54:51;;;;;;;29.17;9.05;;;;;;;;;;5038514;28;20025;-72
2022/06/30 04:57:17;;;;;;;11.82;5.05;;;;;;;;;;5038568;28;20009;-71
2022/06/30 04:59:42;;;;;;;9.93;3.70;;;;;;;;;;5056869;28;20032;-69
2022/06/30 05:02:08;;;;;;;6.65;3.42;;;;;;;;;;5038284;28;20426;-72
2022/06/30 05:04:34;;;;;;;8.35;4.30;;;;;;;;;;5056614;28;20020;-73
2022/06/30 05:07:01;;;;;;;6.32;3.28;;;;;;;;;;5056496;28;20056;-73
2022/06/30 05:09:26;;;;;;;7.32;2.72;;;;;;;;;;5056350;28;20013;-72
2022/06/30 05:11:51;;;;;;;7.00;3.60;;;;;;;;;;5038237;28;20402;-73
2022/06/30 05:14:18;;;;;;;3.67;3.00;;;;;;;;;;5056241;28;20028;-73
2022/06/30 05:16:43;;;;;;;4.55;3.47;;;;;;;;;;5056396;28;20313;-73
2022/06/30 05:19:09;;;;;;;3.87;2.83;;;;;;;;;;5056172;28;20013;-74
2022/06/30 05:21:36;;;;;;;7.10;4.15;;;;;;;;;;5038063;28;20268;-75
2022/06/30 05:26:47;;;;;;;21.77;5.55;;;;;;;;;;5056302;28;20071;-73
2022/06/30 05:29:12;;;;;;;2.63;2.42;;;;;;;;;;5056072;28;20018;-73
2022/06/30 05:31:38;;;;;;;4.25;2.90;;;;;;;;;;5056146;28;20024;-73
2022/06/30 05:34:04;;;;;;;5.53;2.92;;;;;;;;;;5055813;28;20044;-73
2022/06/30 05:36:29;;;;;;;8.15;3.55;;;;;;;;;;5055171;28;20044;-73
2022/06/30 05:38:57;;;;;;;10.40;4.60;;;;;;;;;;5037630;28;20450;-73
2022/06/30 05:41:23;;;;;;;5.00;2.83;;;;;;;;;;5035905;28;20272;-73
2022/06/30 05:43:48;;;;;;;3.58;2.75;;;;;;;;;;5054287;28;20103;-73
2022/06/30 05:46:14;;;;;;;7.20;3.28;;;;;;;;;;5054230;28;20049;-74
2022/06/30 05:48:39;;;;;;;8.57;3.23;;;;;;;;;;5055158;28;20025;-73
2022/06/30 05:51:04;;;;;;;4.43;3.47;;;;;;;;;;5055216;28;20279;-73
2022/06/30 05:53:29;;;;;;;7.75;3.92;;;;;;;;;;5055414;28;20632;-75
2022/06/30 05:55:55;;;;;;;6.53;3.85;;;;;;;;;;5037423;28;20029;-73
2022/06/30 05:58:20;;;;;;;5.93;3.83;;;;;;;;;;5055302;28;20028;-73
2022/06/30 06:00:46;;;;;;;5.97;4.57;;;;;;;;;;5055236;28;20023;-73
2022/06/30 06:03:11;;;;;;;7.75;4.35;;;;;;;;;;5055377;28;20435;-73
2022/06/30 06:05:36;;;;;;;6.03;4.23;;;;;;;;;;5020803;28;20070;-73
2022/06/30 06:08:08;;;;;;;5.87;3.87;;;;;;;;;;5037166;28;20357;-75
2022/06/30 06:10:34;;;;;;;7.70;4.00;;;;;;;;;;5055221;28;20263;-73
2022/06/30 06:12:59;;;;;;;6.45;3.92;;;;;;;;;;5055491;28;20115;-75
2022/06/30 06:15:24;;;;;;;5.57;3.43;;;;;;;;;;5037098;28;20024;-74
2022/06/30 06:17:50;;;;;;;6.33;4.03;;;;;;;;;;5054989;28;20788;-74
2022/06/30 06:20:16;;;;;;;6.33;4.47;;;;;;;;;;5055110;28;20017;-75
2022/06/30 06:22:41;;;;;;;6.85;4.07;;;;;;;;;;5054828;28;20119;-74
2022/06/30 06:25:07;;;;;;;4.68;3.78;;;;;;;;;;5037088;28;20469;-74
2022/06/30 06:27:32;;;;;;;4.40;3.38;;;;;;;;;;5054711;28;20458;-73
2022/06/30 06:29:58;;;;;;;5.05;3.55;;;;;;;;;;5047744;28;20068;-73
2022/06/30 06:32:23;;;;;;;3.55;2.90;;;;;;;;;;5052752;28;20462;-74
2022/06/30 06:34:49;;;;;;;3.60;3.10;;;;;;;;;;5070594;28;20040;-73
2022/06/30 06:37:14;;;;;;;5.30;3.33;;;;;;;;;;5069874;28;20020;-73
2022/06/30 06:39:41;;;;;;;4.45;3.25;;;;;;;;;;5016515;28;20018;-80
2022/06/30 06:42:06;;;;;;;3.55;2.95;;;;;;;;;;5019743;28;20013;-78
2022/06/30 06:44:32;;;;;;;4.70;3.30;;;;;;;;;;5038450;28;20013;-79
2022/06/30 06:46:57;;;;;;;3.00;2.80;;;;;;;;;;5036798;28;20374;-79
2022/06/30 06:49:23;;;;;;;3.40;2.57;;;;;;;;;;5037071;28;20092;-79
2022/06/30 06:51:48;;;;;;;2.80;2.60;;;;;;;;;;5038097;28;20018;-79
2022/06/30 06:54:14;;;;;;;5.33;2.60;;;;;;;;;;5035972;28;20467;-78
2022/06/30 06:56:40;;;;;;;2.97;2.67;;;;;;;;;;5036344;28;20017;-79
2022/06/30 06:59:07;;;;;;;3.47;2.65;;;;;;;;;;5017521;28;20048;-79
2022/06/30 07:01:33;;;;;;;3.92;2.50;;;;;;;;;;5034531;28;20006;-79
2022/06/30 07:03:59;;;;;;;9.52;3.53;;;;;;;;;;5034253;28;20463;-80
2022/06/30 07:06:26;;;;;;;3.92;2.55;;;;;;;;;;5034105;28;20478;-79
2022/06/30 07:08:52;;;;;;;4.90;2.22;;;;;;;;;;5034249;28;20020;-79
2022/06/30 07:11:18;;;;;;;6.40;2.38;;;;;;;;;;5034208;28;20028;-80
2022/06/30 07:13:44;;;;;;;4.63;2.63;;;;;;;;;;5016162;28;20076;-79
2022/06/30 07:16:12;;;;;;;3.30;2.50;;;;;;;;;;5032365;28;20021;-79
2022/06/30 07:18:37;;;;;;;4.10;2.40;;;;;;;;;;5034159;28;20045;-80
2022/06/30 07:21:03;;;;;;;3.58;2.10;;;;;;;;;;5033478;28;20022;-79
2022/06/30 07:23:29;;;;;;;3.10;2.17;;;;;;;;;;5034375;28;20458;-79
2022/06/30 07:25:55;;;;;;;2.35;2.15;;;;;;;;;;5034016;28;20260;-79
2022/06/30 07:28:22;;;;;;;2.72;2.40;;;;;;;;;;5036823;28;20022;-79
2022/06/30 07:30:48;;;;;;;3.20;2.90;;;;;;;;;;5036546;28;20068;-79
2022/06/30 07:33:14;;;;;;;3.63;2.47;;;;;;;;;;5038199;28;20107;-80
2022/06/30 07:35:40;;;;;;;3.72;3.20;;;;;;;;;;5038432;28;20021;-79
2022/06/30 07:38:05;;;;;;;4.43;2.27;;;;;;;;;;5036576;28;20096;-78
2022/06/30 07:40:31;;;;;;;4.07;2.70;;;;;;;;;;5039868;28;20759;-79
2022/06/30 07:42:57;;;;;;;3.70;3.13;;;;;;;;;;5021138;28;20756;-78
2022/06/30 07:45:23;;;;;;;3.87;2.93;;;;;;;;;;5040167;28;20021;-80
2022/06/30 07:47:51;;;;;;;5.60;3.75;;;;;;;;;;5040341;28;20264;-79
2022/06/30 07:50:18;;;;;;;3.70;3.22;;;;;;;;;;5039248;28;20021;-79
2022/06/30 07:52:44;;;;;;;3.50;2.75;;;;;;;;;;5037632;28;20025;-79
2022/06/30 07:55:10;;;;;;;3.08;2.80;;;;;;;;;;5035930;28;20119;-80
2022/06/30 07:57:42;;;;;;;6.67;2.87;;;;;;;;;;5035071;28;20021;-80
2022/06/30 08:00:09;;;;;;;3.65;3.35;;;;;;;;;;5033579;28;20025;-79
2022/06/30 08:02:35;;;;;;;4.57;2.90;;;;;;;;;;5015439;28;20025;-78
2022/06/30 08:05:00;;;;;;;4.33;3.70;;;;;;;;;;5034056;28;20041;-78
2022/06/30 08:07:26;;;;;;;4.95;3.28;;;;;;;;;;5015352;28;20108;-78
2022/06/30 08:09:53;;;;;;;5.85;4.35;;;;;;;;;;5033377;28;20014;-78
2022/06/30 08:12:18;;;;;;;5.60;3.55;;;;;;;;;;5033061;28;20068;-79
2022/06/30 08:14:44;;;;;;;4.15;3.75;;;;;;;;;;5069247;28;20048;-80
2022/06/30 08:17:09;;;;;;;6.43;3.95;;;;;;;;;;5073245;28;20412;-81
2022/06/30 08:19:36;;;;;;;3.63;3.33;;;;;;;;;;5073087;28;20078;-80
2022/06/30 08:22:01;;;;;;;5.00;3.95;;;;;;;;;;5072507;28;20017;-81
2022/06/30 08:24:27;;;;;;;4.57;3.90;;;;;;;;;;5034018;28;20109;-81
2022/06/30 08:26:52;;;;;;;4.23;3.83;;;;;;;;;;5033050;28;20299;-80
2022/06/30 08:29:18;;;;;;;5.65;5.00;;;;;;;;;;5033007;28;20267;-80
2022/06/30 08:31:44;;;;;;;5.00;4.32;;;;;;;;;;5032871;28;20017;-80
2022/06/30 08:34:09;;;;;;;7.57;3.60;;;;;;;;;;5050011;28;20516;-80
2022/06/30 08:36:35;;;;;;;5.87;4.90;;;;;;;;;;5073078;28;20091;-80
2022/06/30 08:42:02;;;;;;;5.13;4.63;;;;;;;;;;5072982;28;20021;-80
2022/06/30 08:42:05;;;;;;;5.70;5.20;;;;;;;;;;5072236;28;20484;-80
2022/06/30 08:44:34;;;;;;;5.72;5.22;;;;;;;;;;5072679;28;20349;-80
2022/06/30 08:47:00;;;;;;;7.33;6.63;;;;;;;;;;5038283;28;20024;-81
2022/06/30 08:49:26;;;;;;;9.07;5.65;;;;;;;;;;5073063;28;20380;-79
2022/06/30 08:51:55;;;;;;;5.97;5.38;;;;;;;;;;5072774;28;20134;-79
2022/06/30 08:54:23;;;;;;;5.97;5.43;;;;;;;;;;5055094;28;20024;-80
2022/06/30 08:59:16;;;;;;;6.18;5.57;;;;;;;;;;5033269;28;20119;-80
2022/06/30 09:01:46;;;;;;;7.22;6.55;;;;;;;;;;5038396;28;20026;-79
2022/06/30 09:04:11;;;;;;;9.02;6.93;;;;;;;;;;5027485;28;20017;-81
2022/06/30 09:06:37;;;;;;;6.97;5.72;;;;;;;;;;5037213;28;20104;-81
2022/06/30 09:09:03;;;;;;;8.13;6.53;;;;;;;;;;5036990;28;20037;-80
2022/06/30 09:11:45;;;;;;;7.53;6.60;;;;;;;;;;5018297;28;20060;-80
2022/06/30 09:14:10;;;;;;;8.65;6.32;;;;;;;;;;5036271;28;20057;-80
2022/06/30 09:16:37;;;;;;;6.97;6.27;;;;;;;;;;5036149;28;20053;-82
2022/06/30 09:19:04;;;;;;;7.55;6.82;;;;;;;;;;5022858;28;20029;-80
2022/06/30 09:21:32;;;;;;;7.93;6.80;;;;;;;;;;5054825;28;20023;-80
2022/06/30 09:23:57;;;;;;;6.63;6.03;;;;;;;;;;5055774;28;20458;-77
2022/06/30 09:26:24;;;;;;;7.37;6.60;;;;;;;;;;5055820;28;20063;-78
2022/06/30 09:28:54;;;;;;;9.70;6.72;;;;;;;;;;5030776;28;20026;-77
2022/06/30 09:31:39;;;;;;;11.00;6.57;;;;;;;;;;5034514;28;20014;-78
2022/06/30 09:34:10;;;;;;;5.82;5.32;;;;;;;;;;5016014;28;20017;-77
2022/06/30 09:36:38;;;;;;;8.95;6.45;;;;;;;;;;5014862;28;20061;-78
2022/06/30 09:39:05;;;;;;;6.18;5.57;;;;;;;;;;4998549;28;20014;-79
2022/06/30 09:41:41;;;;;;;6.28;5.30;;;;;;;;;;5015939;28;20021;-77
2022/06/30 09:44:28;;;;;;;6.80;5.80;;;;;;;;;;5014226;28;20470;-77
2022/06/30 09:46:54;;;;;;;7.75;6.03;;;;;;;;;;5054825;28;20029;-79
2022/06/30 09:49:29;;;;;;;9.55;6.28;;;;;;;;;;5037608;28;20465;-78
2022/06/30 09:51:55;;;;;;;8.05;6.00;;;;;;;;;;5055692;28;20025;-78
2022/06/30 09:54:21;;;;;;;9.23;5.78;;;;;;;;;;5055913;28;20029;-77
2022/06/30 09:57:01;;;;;;;5.95;5.38;;;;;;;;;;5055449;28;20064;-79
2022/06/30 09:59:27;;;;;;;6.68;4.95;;;;;;;;;;5022833;28;20592;-78
2022/06/30 10:01:54;;;;;;;7.20;5.72;;;;;;;;;;5013570;28;20028;-77
2022/06/30 10:04:20;;;;;;;8.07;5.38;;;;;;;;;;4996692;28;20034;-77
2022/06/30 10:06:45;;;;;;;5.45;4.95;;;;;;;;;;5013975;28;20471;-76
2022/06/30 10:09:17;;;;;;;6.55;5.90;;;;;;;;;;5014181;28;20025;-77
2022/06/30 10:11:44;;;;;;;7.65;6.32;;;;;;;;;;5014424;28;20026;-78
2022/06/30 10:14:11;;;;;;;6.38;5.78;;;;;;;;;;5014925;28;20510;-79
2022/06/30 10:16:41;;;;;;;7.88;6.00;;;;;;;;;;5015270;28;20100;-78
2022/06/30 10:19:10;;;;;;;6.07;5.47;;;;;;;;;;5011568;28;20037;-79
2022/06/30 10:21:39;;;;;;;6.55;5.55;;;;;;;;;;5015431;28;20465;-81
2022/06/30 10:24:08;;;;;;;6.82;6.13;;;;;;;;;;4999816;28;20056;-79
2022/06/30 10:29:20;;;;;;;7.20;5.95;;;;;;;;;;5015826;28;20128;-79
2022/06/30 10:31:46;;;;;;;6.40;5.80;;;;;;;;;;5016330;28;20073;-79
2022/06/30 10:34:21;;;;;;;7.57;6.57;;;;;;;;;;5015168;28;20498;-78
2022/06/30 10:37:05;;;;;;;6.32;5.65;;;;;;;;;;5015271;28;20116;-77
2022/06/30 10:39:53;;;;;;;8.35;6.80;;;;;;;;;;5015435;28;20026;-79
2022/06/30 10:42:38;;;;;;;7.47;6.20;;;;;;;;;;5015131;28;20044;-79
2022/06/30 10:45:04;;;;;;;7.35;5.85;;;;;;;;;;5015103;28;20053;-79
2022/06/30 10:47:31;;;;;;;7.57;6.03;;;;;;;;;;5025612;28;20036;-80
2022/06/30 10:49:58;;;;;;;7.20;5.45;;;;;;;;;;5015667;28;20119;-79
2022/06/30 10:52:32;;;;;;;7.03;5.97;;;;;;;;;;5015882;28;20029;-80
2022/06/30 10:55:03;;;;;;;6.75;5.63;;;;;;;;;;4997924;28;20458;-80
2022/06/30 10:57:49;;;;;;;6.40;5.30;;;;;;;;;;4984872;28;20057;-80
2022/06/30 11:00:41;;;;;;;6.35;5.35;;;;;;;;;;5033728;28;20056;-78
2022/06/30 11:03:08;;;;;;;6.65;5.38;;;;;;;;;;5019781;28;20017;-80
2022/06/30 11:05:47;;;;;;;6.28;5.38;;;;;;;;;;5054219;28;20017;-79
2022/06/30 11:08:32;;;;;;;5.80;5.20;;;;;;;;;;5054022;28;20028;-79
2022/06/30 11:10:58;;;;;;;7.50;5.10;;;;;;;;;;5053665;28;20021;-80
2022/06/30 11:13:27;;;;;;;6.17;5.50;;;;;;;;;;5053494;28;20028;-79
2022/06/30 11:15:54;;;;;;;5.15;4.63;;;;;;;;;;5035556;28;20036;-79
2022/06/30 11:18:20;;;;;;;6.10;5.50;;;;;;;;;;5051770;28;20425;-78
2022/06/30 11:20:45;;;;;;;5.97;4.93;;;;;;;;;;5053062;28;20036;-79
2022/06/30 11:23:11;;;;;;;6.07;5.40;;;;;;;;;;5053328;28;20051;-79
2022/06/30 11:28:27;;;;;;;6.35;5.15;;;;;;;;;;5038629;28;20175;-79
2022/06/30 11:30:52;;;;;;;6.20;5.65;;;;;;;;;;5053529;28;20013;-80
2022/06/30 11:33:18;;;;;;;8.50;5.10;;;;;;;;;;5053704;28;20047;-77
2022/06/30 11:35:45;;;;;;;5.90;5.30;;;;;;;;;;5057369;28;20121;-78
2022/06/30 11:38:11;;;;;;;5.18;4.68;;;;;;;;;;5036541;28;20017;-79
2022/06/30 11:40:38;;;;;;;6.50;5.10;;;;;;;;;;5055384;28;20017;-78
2022/06/30 11:43:24;;;;;;;6.25;5.20;;;;;;;;;;5056115;28;20370;-77
2022/06/30 11:46:09;;;;;;;7.47;5.15;;;;;;;;;;5035590;28;20040;-79
2022/06/30 11:48:43;;;;;;;5.53;4.85;;;;;;;;;;5054272;28;20094;-80
2022/06/30 11:51:11;;;;;;;5.30;4.80;;;;;;;;;;5054433;28;20462;-79
2022/06/30 11:53:47;;;;;;;7.05;4.95;;;;;;;;;;5054429;28;20021;-79
2022/06/30 11:56:13;;;;;;;7.32;5.03;;;;;;;;;;5054936;28;20048;-79
2022/06/30 11:58:39;;;;;;;4.75;4.30;;;;;;;;;;5057195;28;20067;-79
2022/06/30 12:01:12;;;;;;;5.65;5.00;;;;;;;;;;5034480;28;20018;-78
2022/06/30 12:03:41;;;;;;;5.95;4.93;;;;;;;;;;5033488;28;20018;-73
2022/06/30 12:06:07;;;;;;;7.07;4.75;;;;;;;;;;5033207;28;20355;-74
2022/06/30 12:08:34;;;;;;;4.95;4.32;;;;;;;;;;5033325;28;20021;-75
2022/06/30 12:11:00;;;;;;;10.18;4.93;;;;;;;;;;5033426;28;20106;-73
2022/06/30 12:13:25;;;;;;;5.55;5.00;;;;;;;;;;5033496;28;20017;-73
2022/06/30 12:15:53;;;;;;;6.13;5.20;;;;;;;;;;5033061;28;20025;-75
2022/06/30 12:18:22;;;;;;;5.50;4.60;;;;;;;;;;5031578;28;20259;-75
2022/06/30 12:20:48;;;;;;;5.53;5.03;;;;;;;;;;5015485;28;20120;-76
2022/06/30 12:23:14;;;;;;;5.35;4.85;;;;;;;;;;5013828;28;20502;-73
2022/06/30 12:25:40;;;;;;;6.10;5.10;;;;;;;;;;5032909;28;20018;-73
2022/06/30 12:28:05;;;;;;;5.75;5.00;;;;;;;;;;5014029;28;20021;-74
2022/06/30 12:30:35;;;;;;;5.50;5.00;;;;;;;;;;5033962;28;20071;-74
2022/06/30 12:33:01;;;;;;;5.43;4.80;;;;;;;;;;5035061;28;20283;-75
2022/06/30 12:35:32;;;;;;;7.05;4.88;;;;;;;;;;5034823;28;20017;-75
2022/06/30 12:38:08;;;;;;;7.72;5.43;;;;;;;;;;5034598;28;20092;-74
2022/06/30 12:40:36;;;;;;;6.43;5.30;;;;;;;;;;5034662;28;20021;-74
2022/06/30 12:43:02;;;;;;;10.18;5.35;;;;;;;;;;5034819;28;20022;-73
2022/06/30 12:45:36;;;;;;;7.05;5.13;;;;;;;;;;5017549;28;20017;-73
2022/06/30 12:48:02;;;;;;;9.75;5.32;;;;;;;;;;5036417;28;20017;-73
2022/06/30 12:50:30;;;;;;;6.20;4.43;;;;;;;;;;5019055;28;20047;-73
2022/06/30 12:53:13;;;;;;;5.47;4.97;;;;;;;;;;5018762;28;20370;-73
2022/06/30 12:56:08;;;;;;;9.13;4.85;;;;;;;;;;5036271;28;20025;-73
2022/06/30 12:58:42;;;;;;;4.95;4.53;;;;;;;;;;5018967;28;20045;-73
2022/06/30 13:01:07;;;;;;;5.18;4.68;;;;;;;;;;5036641;28;20014;-73
2022/06/30 13:03:45;;;;;;;7.03;4.32;;;;;;;;;;5036390;28;20037;-73
2022/06/30 13:06:10;;;;;;;4.45;4.05;;;;;;;;;;5036385;28;20025;-74
2022/06/30 13:08:36;;;;;;;6.50;5.37;;;;;;;;;;5017806;28;20040;-73
2022/06/30 13:11:08;;;;;;;5.78;5.03;;;;;;;;;;5036151;28;20025;-74
2022/06/30 13:13:34;;;;;;;4.50;4.10;;;;;;;;;;5014521;28;20025;-73
2022/06/30 13:15:59;;;;;;;4.47;4.07;;;;;;;;;;5043560;28;20021;-73
2022/06/30 13:18:26;;;;;;;4.80;4.30;;;;;;;;;;5055967;28;20016;-73
2022/06/30 13:20:53;;;;;;;4.47;4.07;;;;;;;;;;5041025;28;20029;-74
2022/06/30 13:23:19;;;;;;;5.95;3.50;;;;;;;;;;5040563;28;20092;-73
2022/06/30 13:25:45;;;;;;;5.63;3.55;;;;;;;;;;5040369;28;20022;-73
2022/06/30 13:28:12;;;;;;;4.70;3.97;;;;;;;;;;5036103;28;20081;-73
2022/06/30 13:30:38;;;;;;;4.18;3.78;;;;;;;;;;5035967;28;20076;-76
2022/06/30 13:33:05;;;;;;;4.30;3.72;;;;;;;;;;5036536;28;20113;-74
2022/06/30 13:35:30;;;;;;;4.40;4.00;;;;;;;;;;5036161;28;20028;-74
2022/06/30 13:37:55;;;;;;;4.33;3.93;;;;;;;;;;5036063;28;20018;-72
2022/06/30 13:40:20;;;;;;;4.10;3.43;;;;;;;;;;5035312;28;20287;-72
2022/06/30 13:42:46;;;;;;;5.13;4.03;;;;;;;;;;5036301;28;20257;-72
2022/06/30 13:45:12;;;;;;;3.90;3.60;;;;;;;;;;5018010;28;20470;-73
2022/06/30 13:47:38;;;;;;;3.72;3.35;;;;;;;;;;5035781;28;20300;-73
2022/06/30 13:50:05;;;;;;;5.90;3.60;;;;;;;;;;5035338;28;20036;-73
2022/06/30 13:52:34;;;;;;;6.38;3.80;;;;;;;;;;5035471;28;20017;-73
2022/06/30 13:55:00;;;;;;;6.47;3.88;;;;;;;;;;5035143;28;20022;-73
2022/06/30 13:57:27;;;;;;;5.47;3.85;;;;;;;;;;5035397;28;20454;-73
2022/06/30 13:59:53;;;;;;;4.72;3.70;;;;;;;;;;5035171;28;20022;-73
2022/06/30 14:02:20;;;;;;;10.45;4.55;;;;;;;;;;5033930;28;20383;-73
2022/06/30 14:04:46;;;;;;;4.55;3.97;;;;;;;;;;5035268;28;20406;-73
2022/06/30 14:07:11;;;;;;;3.80;3.38;;;;;;;;;;5035256;28;20056;-73
2022/06/30 14:09:36;;;;;;;4.20;3.80;;;;;;;;;;5035382;28;20466;-74
2022/06/30 14:12:03;;;;;;;5.87;4.47;;;;;;;;;;5034958;28;20018;-73
2022/06/30 14:14:29;;;;;;;8.05;3.72;;;;;;;;;;5035166;28;20021;-73
2022/06/30 14:16:56;;;;;;;6.85;4.60;;;;;;;;;;5035145;28;20029;-73
2022/06/30 14:19:22;;;;;;;6.05;3.65;;;;;;;;;;5034778;28;20375;-73
2022/06/30 14:21:49;;;;;;;5.68;3.70;;;;;;;;;;5034821;28;20021;-73
2022/06/30 14:24:14;;;;;;;5.43;4.43;;;;;;;;;;5034876;28;20021;-73
2022/06/30 14:26:39;;;;;;;5.33;4.10;;;;;;;;;;5034959;28;20025;-72
2022/06/30 14:29:05;;;;;;;5.10;4.60;;;;;;;;;;5034483;28;20021;-73
2022/06/30 14:31:31;;;;;;;4.88;4.38;;;;;;;;;;5034521;28;20762;-73
2022/06/30 14:33:58;;;;;;;5.78;4.32;;;;;;;;;;5013580;28;20072;-74
2022/06/30 14:36:26;;;;;;;4.53;4.13;;;;;;;;;;5028726;28;20065;-74
2022/06/30 14:38:52;;;;;;;4.97;3.80;;;;;;;;;;5033750;28;20048;-74
2022/06/30 14:42:43;;;;;;;4.57;4.07;;;;;;;;;;5034152;28;20025;-74
2022/06/30 14:44:11;;;;;;;4.13;3.63;;;;;;;;;;5033446;28;20030;-74
2022/06/30 14:46:38;;;;;;;5.57;3.70;;;;;;;;;;5034592;28;20032;-74
2022/06/30 14:49:04;;;;;;;4.53;4.07;;;;;;;;;;5034181;28;20025;-74
2022/06/30 14:51:30;;;;;;;4.00;3.60;;;;;;;;;;5014366;28;20037;-74
2022/06/30 14:53:58;;;;;;;4.13;3.72;;;;;;;;;;5045632;28;20117;-75
2022/06/30 14:56:26;;;;;;;4.47;4.07;;;;;;;;;;5022122;28;20022;-75
2022/06/30 14:58:52;;;;;;;4.97;4.55;;;;;;;;;;5035858;28;20052;-76
2022/06/30 15:01:18;;;;;;;4.30;3.83;;;;;;;;;;5009534;28;20025;-76
2022/06/30 15:03:43;;;;;;;6.03;4.07;;;;;;;;;;5017675;28;20024;-74